sensor_id;sensor_type;location;lat;lon;timestamp;pressure;altitude;pressure_sealevel;temperature;humidity
35806;BME280;21925;44.608;11.580;2024-01-11T00:01:03;102817.13;;;4.11;100.00
35806;BME280;21925;44.608;11.580;2024-01-11T00:03:29;102807.56;;;4.09;100.00
35806;BME280;21925;44.608;11.580;2024-01-11T00:05:54;102799.19;;;4.10;100.00
35806;BME280;21925;44.608;11.580;2024-01-11T00:08:20;102789.88;;;4.01;100.00
35806;BME280;21925;44.608;11.580;2024-01-11T00:10:46;102826.25;;;4.27;100.00
35806;BME280;21925;44.608;11.580;2024-01-11T00:13:11;102769.28;;;3.84;100.00
35806;BME280;21925;44.608;11.580;2024-01-11T00:15:37;102766.84;;;3.83;100.00
35806;BME280;21925;44.608;11.580;2024-01-11T00:18:03;102777.88;;;3.97;100.00
35806;BME280;21925;44.608;11.580;2024-01-11T00:20:29;102829.66;;;4.39;100.00
35806;BME280;21925;44.608;11.580;2024-01-11T00:22:54;102803.25;;;4.34;100.00
35806;BME280;21925;44.608;11.580;2024-01-11T00:25:20;102824.09;;;4.29;100.00
35806;BME280;21925;44.608;11.580;2024-01-11T00:27:46;102754.72;;;3.90;100.00
35806;BME280;21925;44.608;11.580;2024-01-11T00:30:11;102763.97;;;3.94;100.00
35806;BME280;21925;44.608;11.580;2024-01-11T00:32:37;102776.66;;;4.10;100.00
35806;BME280;21925;44.608;11.580;2024-01-11T00:35:03;102766.50;;;4.00;100.00
35806;BME280;21925;44.608;11.580;2024-01-11T00:37:28;102803.59;;;4.16;100.00
35806;BME280;21925;44.608;11.580;2024-01-11T00:39:54;102744.56;;;3.81;100.00
35806;BME280;21925;44.608;11.580;2024-01-11T00:42:20;102772.88;;;3.90;100.00
35806;BME280;21925;44.608;11.580;2024-01-11T00:44:45;102782.84;;;4.05;100.00
35806;BME280;21925;44.608;11.580;2024-01-11T00:47:11;102784.44;;;4.01;100.00
35806;BME280;21925;44.608;11.580;2024-01-11T00:49:36;102822.28;;;4.34;100.00
35806;BME280;21925;44.608;11.580;2024-01-11T00:52:02;102765.06;;;3.93;100.00
35806;BME280;21925;44.608;11.580;2024-01-11T00:54:28;102777.88;;;3.97;100.00
35806;BME280;21925;44.608;11.580;2024-01-11T00:56:53;102776.53;;;4.00;100.00
35806;BME280;21925;44.608;11.580;2024-01-11T00:59:19;102802.88;;;4.26;100.00
35806;BME280;21925;44.608;11.580;2024-01-11T01:01:48;102814.94;;;4.35;100.00
35806;BME280;21925;44.608;11.580;2024-01-11T01:04:14;102753.28;;;3.83;100.00
35806;BME280;21925;44.608;11.580;2024-01-11T01:06:41;102795.75;;;4.20;100.00
35806;BME280;21925;44.608;11.580;2024-01-11T01:09:07;102752.19;;;3.84;100.00
35806;BME280;21925;44.608;11.580;2024-01-11T01:11:32;102805.75;;;4.14;100.00
35806;BME280;21925;44.608;11.580;2024-01-11T01:13:58;102789.59;;;4.03;100.00
35806;BME280;21925;44.608;11.580;2024-01-11T01:16:24;102820.50;;;4.23;100.00
35806;BME280;21925;44.608;11.580;2024-01-11T01:18:49;102777.13;;;3.81;100.00
35806;BME280;21925;44.608;11.580;2024-01-11T01:21:15;102787.00;;;4.13;100.00
35806;BME280;21925;44.608;11.580;2024-01-11T01:23:41;102765.78;;;3.84;100.00
35806;BME280;21925;44.608;11.580;2024-01-11T01:26:06;102749.38;;;3.74;100.00
35806;BME280;21925;44.608;11.580;2024-01-11T01:28:32;102818.13;;;4.05;100.00
35806;BME280;21925;44.608;11.580;2024-01-11T01:30:58;102831.25;;;4.13;100.00
35806;BME280;21925;44.608;11.580;2024-01-11T01:33:24;102768.44;;;3.79;100.00
35806;BME280;21925;44.608;11.580;2024-01-11T01:35:49;102776.00;;;3.77;100.00
35806;BME280;21925;44.608;11.580;2024-01-11T01:38:15;102769.38;;;3.68;100.00
35806;BME280;21925;44.608;11.580;2024-01-11T01:40:43;102829.38;;;3.92;100.00
35806;BME280;21925;44.608;11.580;2024-01-11T01:43:09;102825.72;;;4.03;100.00
35806;BME280;21925;44.608;11.580;2024-01-11T01:45:35;102763.38;;;3.66;100.00
35806;BME280;21925;44.608;11.580;2024-01-11T01:48:02;102832.59;;;4.11;100.00
35806;BME280;21925;44.608;11.580;2024-01-11T01:50:28;102775.06;;;3.66;100.00
35806;BME280;21925;44.608;11.580;2024-01-11T01:52:55;102761.06;;;3.53;100.00
35806;BME280;21925;44.608;11.580;2024-01-11T01:55:21;102789.69;;;3.87;100.00
35806;BME280;21925;44.608;11.580;2024-01-11T01:57:48;102784.00;;;3.88;100.00
35806;BME280;21925;44.608;11.580;2024-01-11T02:00:16;102772.34;;;3.88;100.00
35806;BME280;21925;44.608;11.580;2024-01-11T02:02:45;102766.84;;;3.83;100.00
35806;BME280;21925;44.608;11.580;2024-01-11T02:05:16;102778.25;;;3.85;100.00
35806;BME280;21925;44.608;11.580;2024-01-11T02:07:43;102788.09;;;3.91;100.00
35806;BME280;21925;44.608;11.580;2024-01-11T02:10:09;102777.81;;;3.92;100.00
35806;BME280;21925;44.608;11.580;2024-01-11T02:12:35;102816.75;;;4.29;100.00
35806;BME280;21925;44.608;11.580;2024-01-11T02:15:03;102819.63;;;4.18;100.00
35806;BME280;21925;44.608;11.580;2024-01-11T02:17:32;102781.03;;;3.90;100.00
35806;BME280;21925;44.608;11.580;2024-01-11T02:19:58;102786.72;;;3.88;100.00
35806;BME280;21925;44.608;11.580;2024-01-11T02:22:29;102837.00;;;4.17;100.00
35806;BME280;21925;44.608;11.580;2024-01-11T02:24:55;102826.97;;;4.17;100.00
35806;BME280;21925;44.608;11.580;2024-01-11T02:27:22;102800.72;;;4.01;100.00
35806;BME280;21925;44.608;11.580;2024-01-11T02:29:48;102793.97;;;4.04;100.00
35806;BME280;21925;44.608;11.580;2024-01-11T02:32:14;102818.69;;;4.07;100.00
35806;BME280;21925;44.608;11.580;2024-01-11T02:34:39;102791.34;;;3.88;100.00
35806;BME280;21925;44.608;11.580;2024-01-11T02:37:06;102744.03;;;3.57;100.00
35806;BME280;21925;44.608;11.580;2024-01-11T02:39:32;102760.75;;;3.71;100.00
35806;BME280;21925;44.608;11.580;2024-01-11T02:41:59;102822.78;;;4.10;100.00
35806;BME280;21925;44.608;11.580;2024-01-11T02:44:25;102754.66;;;3.64;100.00
35806;BME280;21925;44.608;11.580;2024-01-11T02:46:51;102782.53;;;3.81;100.00
35806;BME280;21925;44.608;11.580;2024-01-11T02:49:17;102801.22;;;3.98;100.00
35806;BME280;21925;44.608;11.580;2024-01-11T02:51:43;102798.00;;;3.80;100.00
35806;BME280;21925;44.608;11.580;2024-01-11T02:54:09;102742.56;;;3.50;100.00
35806;BME280;21925;44.608;11.580;2024-01-11T02:56:34;102796.81;;;3.92;100.00
35806;BME280;21925;44.608;11.580;2024-01-11T02:59:00;102773.34;;;3.82;100.00
35806;BME280;21925;44.608;11.580;2024-01-11T03:01:25;102771.69;;;3.81;100.00
35806;BME280;21925;44.608;11.580;2024-01-11T03:03:51;102792.41;;;3.87;100.00
35806;BME280;21925;44.608;11.580;2024-01-11T03:06:17;102764.84;;;3.73;100.00
35806;BME280;21925;44.608;11.580;2024-01-11T03:08:49;102789.25;;;3.94;100.00
35806;BME280;21925;44.608;11.580;2024-01-11T03:11:15;102748.34;;;3.80;100.00
35806;BME280;21925;44.608;11.580;2024-01-11T03:13:42;102732.47;;;3.67;100.00
35806;BME280;21925;44.608;11.580;2024-01-11T03:16:08;102719.41;;;3.64;100.00
35806;BME280;21925;44.608;11.580;2024-01-11T03:18:33;102769.28;;;4.05;100.00
35806;BME280;21925;44.608;11.580;2024-01-11T03:20:59;102778.59;;;4.14;100.00
35806;BME280;21925;44.608;11.580;2024-01-11T03:23:24;102736.81;;;3.89;100.00
35806;BME280;21925;44.608;11.580;2024-01-11T03:25:50;102738.22;;;3.96;100.00
35806;BME280;21925;44.608;11.580;2024-01-11T03:28:17;102708.97;;;3.77;100.00
35806;BME280;21925;44.608;11.580;2024-01-11T03:30:43;102727.63;;;3.95;100.00
35806;BME280;21925;44.608;11.580;2024-01-11T03:33:08;102705.66;;;3.70;100.00
35806;BME280;21925;44.608;11.580;2024-01-11T03:35:34;102761.44;;;4.09;100.00
35806;BME280;21925;44.608;11.580;2024-01-11T03:38:00;102728.41;;;3.91;100.00
35806;BME280;21925;44.608;11.580;2024-01-11T03:40:26;102719.06;;;3.82;100.00
35806;BME280;21925;44.608;11.580;2024-01-11T03:42:52;102719.34;;;3.80;100.00
35806;BME280;21925;44.608;11.580;2024-01-11T03:45:18;102689.03;;;3.62;100.00
35806;BME280;21925;44.608;11.580;2024-01-11T03:47:46;102711.69;;;3.77;100.00
35806;BME280;21925;44.608;11.580;2024-01-11T03:50:12;102727.91;;;3.93;100.00
35806;BME280;21925;44.608;11.580;2024-01-11T03:52:39;102739.66;;;4.04;100.00
35806;BME280;21925;44.608;11.580;2024-01-11T03:55:05;102744.19;;;3.93;100.00
35806;BME280;21925;44.608;11.580;2024-01-11T03:57:31;102697.97;;;3.62;100.00
35806;BME280;21925;44.608;11.580;2024-01-11T03:59:57;102719.97;;;3.66;100.00
35806;BME280;21925;44.608;11.580;2024-01-11T04:02:24;102719.94;;;3.61;100.00
35806;BME280;21925;44.608;11.580;2024-01-11T04:04:50;102729.75;;;3.67;100.00
35806;BME280;21925;44.608;11.580;2024-01-11T04:07:16;102708.06;;;3.45;100.00
35806;BME280;21925;44.608;11.580;2024-01-11T04:09:42;102701.84;;;3.45;100.00
35806;BME280;21925;44.608;11.580;2024-01-11T04:12:08;102698.38;;;3.49;100.00
35806;BME280;21925;44.608;11.580;2024-01-11T04:14:37;102739.16;;;3.59;100.00
35806;BME280;21925;44.608;11.580;2024-01-11T04:17:04;102715.69;;;3.48;100.00
35806;BME280;21925;44.608;11.580;2024-01-11T04:19:29;102742.81;;;3.70;100.00
35806;BME280;21925;44.608;11.580;2024-01-11T04:21:55;102699.34;;;3.43;100.00
35806;BME280;21925;44.608;11.580;2024-01-11T04:24:20;102716.47;;;3.44;100.00
35806;BME280;21925;44.608;11.580;2024-01-11T04:26:46;102765.16;;;3.77;100.00
35806;BME280;21925;44.608;11.580;2024-01-11T04:29:12;102699.25;;;3.33;100.00
35806;BME280;21925;44.608;11.580;2024-01-11T04:31:37;102722.13;;;3.64;100.00
35806;BME280;21925;44.608;11.580;2024-01-11T04:34:03;102728.69;;;3.68;100.00
35806;BME280;21925;44.608;11.580;2024-01-11T04:36:28;102696.59;;;3.38;100.00
35806;BME280;21925;44.608;11.580;2024-01-11T04:38:55;102692.00;;;3.39;100.00
35806;BME280;21925;44.608;11.580;2024-01-11T04:41:21;102735.00;;;3.52;100.00
35806;BME280;21925;44.608;11.580;2024-01-11T04:43:46;102763.91;;;3.63;100.00
35806;BME280;21925;44.608;11.580;2024-01-11T04:46:16;102752.03;;;3.69;100.00
35806;BME280;21925;44.608;11.580;2024-01-11T04:48:43;102749.06;;;3.70;100.00
35806;BME280;21925;44.608;11.580;2024-01-11T04:51:09;102709.97;;;3.45;100.00
35806;BME280;21925;44.608;11.580;2024-01-11T04:53:38;102750.03;;;3.59;100.00
35806;BME280;21925;44.608;11.580;2024-01-11T04:56:08;102749.75;;;3.61;100.00
35806;BME280;21925;44.608;11.580;2024-01-11T04:58:35;102712.50;;;3.30;100.00
35806;BME280;21925;44.608;11.580;2024-01-11T05:01:00;102751.41;;;3.62;100.00
35806;BME280;21925;44.608;11.580;2024-01-11T05:03:27;102730.16;;;3.54;100.00
35806;BME280;21925;44.608;11.580;2024-01-11T05:05:53;102744.38;;;3.66;100.00
35806;BME280;21925;44.608;11.580;2024-01-11T05:08:18;102717.56;;;3.48;100.00
35806;BME280;21925;44.608;11.580;2024-01-11T05:10:44;102751.41;;;3.62;100.00
35806;BME280;21925;44.608;11.580;2024-01-11T05:13:10;102741.38;;;3.62;100.00
35806;BME280;21925;44.608;11.580;2024-01-11T05:15:36;102707.94;;;3.57;100.00
35806;BME280;21925;44.608;11.580;2024-01-11T05:18:01;102714.94;;;3.53;100.00
35806;BME280;21925;44.608;11.580;2024-01-11T05:20:27;102692.00;;;3.39;100.00
35806;BME280;21925;44.608;11.580;2024-01-11T05:22:52;102744.66;;;3.64;100.00
35806;BME280;21925;44.608;11.580;2024-01-11T05:25:18;102676.63;;;3.23;100.00
35806;BME280;21925;44.608;11.580;2024-01-11T05:27:44;102714.50;;;3.39;100.00
35806;BME280;21925;44.608;11.580;2024-01-11T05:30:09;102694.38;;;3.35;100.00
35806;BME280;21925;44.608;11.580;2024-01-11T05:32:35;102730.81;;;3.66;100.00
35806;BME280;21925;44.608;11.580;2024-01-11T05:35:01;102709.88;;;3.40;100.00
35806;BME280;21925;44.608;11.580;2024-01-11T05:37:26;102705.78;;;3.37;100.00
35806;BME280;21925;44.608;11.580;2024-01-11T05:39:52;102708.56;;;3.21;100.00
35806;BME280;21925;44.608;11.580;2024-01-11T05:42:19;102698.72;;;3.15;100.00
35806;BME280;21925;44.608;11.580;2024-01-11T05:44:45;102717.72;;;3.36;100.00
35806;BME280;21925;44.608;11.580;2024-01-11T05:47:10;102727.16;;;3.34;100.00
35806;BME280;21925;44.608;11.580;2024-01-11T05:49:36;102665.78;;;2.85;100.00
35806;BME280;21925;44.608;11.580;2024-01-11T05:52:02;102727.47;;;3.16;100.00
35806;BME280;21925;44.608;11.580;2024-01-11T05:54:27;102689.31;;;3.01;100.00
35806;BME280;21925;44.608;11.580;2024-01-11T05:56:53;102677.47;;;2.86;100.00
35806;BME280;21925;44.608;11.580;2024-01-11T05:59:22;102730.50;;;3.19;100.00
35806;BME280;21925;44.608;11.580;2024-01-11T06:01:47;102712.84;;;3.17;100.00
35806;BME280;21925;44.608;11.580;2024-01-11T06:04:13;102711.44;;;3.31;100.00
35806;BME280;21925;44.608;11.580;2024-01-11T06:06:40;102697.59;;;3.11;100.00
35806;BME280;21925;44.608;11.580;2024-01-11T06:09:05;102727.69;;;3.31;100.00
35806;BME280;21925;44.608;11.580;2024-01-11T06:11:31;102750.66;;;3.45;100.00
35806;BME280;21925;44.608;11.580;2024-01-11T06:13:57;102690.66;;;2.99;100.00
35806;BME280;21925;44.608;11.580;2024-01-11T06:16:23;102737.75;;;3.14;100.00
35806;BME280;21925;44.608;11.580;2024-01-11T06:18:49;102696.22;;;2.92;100.00
35806;BME280;21925;44.608;11.580;2024-01-11T06:21:15;102662.41;;;2.57;100.00
35806;BME280;21925;44.608;11.580;2024-01-11T06:23:45;102733.31;;;3.08;100.00
35806;BME280;21925;44.608;11.580;2024-01-11T06:26:11;102732.34;;;3.14;100.00
35806;BME280;21925;44.608;11.580;2024-01-11T06:28:37;102749.81;;;3.23;100.00
35806;BME280;21925;44.608;11.580;2024-01-11T06:31:02;102684.28;;;2.88;100.00
35806;BME280;21925;44.608;11.580;2024-01-11T06:33:29;102753.69;;;3.32;100.00
35806;BME280;21925;44.608;11.580;2024-01-11T06:35:55;102726.59;;;3.11;100.00
35806;BME280;21925;44.608;11.580;2024-01-11T06:38:21;102759.66;;;3.29;100.00
35806;BME280;21925;44.608;11.580;2024-01-11T06:40:48;102691.00;;;2.86;100.00
35806;BME280;21925;44.608;11.580;2024-01-11T06:43:14;102759.81;;;3.22;100.00
35806;BME280;21925;44.608;11.580;2024-01-11T06:45:43;102715.09;;;3.04;100.00
35806;BME280;21925;44.608;11.580;2024-01-11T06:48:09;102718.06;;;3.02;100.00
35806;BME280;21925;44.608;11.580;2024-01-11T06:50:34;102690.50;;;2.89;100.00
35806;BME280;21925;44.608;11.580;2024-01-11T06:53:01;102743.03;;;3.04;100.00
35806;BME280;21925;44.608;11.580;2024-01-11T06:55:27;102745.47;;;3.22;100.00
35806;BME280;21925;44.608;11.580;2024-01-11T06:57:53;102738.72;;;3.08;100.00
35806;BME280;21925;44.608;11.580;2024-01-11T07:00:18;102713.47;;;3.03;100.00
35806;BME280;21925;44.608;11.580;2024-01-11T07:02:44;102719.31;;;2.95;100.00
35806;BME280;21925;44.608;11.580;2024-01-11T07:05:11;102723.69;;;3.17;100.00
35806;BME280;21925;44.608;11.580;2024-01-11T07:07:37;102690.25;;;2.90;100.00
35806;BME280;21925;44.608;11.580;2024-01-11T07:10:03;102743.81;;;3.21;100.00
35806;BME280;21925;44.608;11.580;2024-01-11T07:12:31;102710.56;;;3.09;100.00
35806;BME280;21925;44.608;11.580;2024-01-11T07:14:57;102701.81;;;3.02;100.00
35806;BME280;21925;44.608;11.580;2024-01-11T07:17:22;102690.47;;;3.05;100.00
35806;BME280;21925;44.608;11.580;2024-01-11T07:19:48;102704.25;;;3.04;100.00
35806;BME280;21925;44.608;11.580;2024-01-11T07:22:14;102705.16;;;3.09;100.00
35806;BME280;21925;44.608;11.580;2024-01-11T07:24:40;102693.34;;;2.99;100.00
35806;BME280;21925;44.608;11.580;2024-01-11T07:27:06;102708.00;;;3.19;100.00
35806;BME280;21925;44.608;11.580;2024-01-11T07:29:33;102693.25;;;3.10;100.00
35806;BME280;21925;44.608;11.580;2024-01-11T07:31:59;102740.72;;;3.34;100.00
35806;BME280;21925;44.608;11.580;2024-01-11T07:34:26;102681.75;;;3.03;100.00
35806;BME280;21925;44.608;11.580;2024-01-11T07:36:52;102681.38;;;2.95;100.00
35806;BME280;21925;44.608;11.580;2024-01-11T07:39:19;102740.84;;;3.22;100.00
35806;BME280;21925;44.608;11.580;2024-01-11T07:41:44;102721.66;;;3.08;100.00
35806;BME280;21925;44.608;11.580;2024-01-11T07:44:10;102721.34;;;3.04;100.00
35806;BME280;21925;44.608;11.580;2024-01-11T07:46:36;102705.94;;;2.88;100.00
35806;BME280;21925;44.608;11.580;2024-01-11T07:49:05;102682.56;;;2.82;100.00
35806;BME280;21925;44.608;11.580;2024-01-11T07:51:31;102684.53;;;2.87;100.00
35806;BME280;21925;44.608;11.580;2024-01-11T07:53:56;102735.16;;;3.24;100.00
35806;BME280;21925;44.608;11.580;2024-01-11T07:56:22;102709.88;;;2.97;100.00
35806;BME280;21925;44.608;11.580;2024-01-11T07:58:48;102703.72;;;2.85;100.00
35806;BME280;21925;44.608;11.580;2024-01-11T08:01:15;102770.41;;;3.24;100.00
35806;BME280;21925;44.608;11.580;2024-01-11T08:03:41;102724.97;;;2.93;100.00
35806;BME280;21925;44.608;11.580;2024-01-11T08:06:07;102736.75;;;3.04;100.00
35806;BME280;21925;44.608;11.580;2024-01-11T08:08:34;102707.94;;;2.60;100.00
35806;BME280;21925;44.608;11.580;2024-01-11T08:11:00;102721.97;;;2.73;100.00
35806;BME280;21925;44.608;11.580;2024-01-11T08:13:25;102766.66;;;3.09;100.00
35806;BME280;21925;44.608;11.580;2024-01-11T08:15:51;102765.50;;;3.21;100.00
35806;BME280;21925;44.608;11.580;2024-01-11T08:18:19;102725.13;;;3.03;100.00
35806;BME280;21925;44.608;11.580;2024-01-11T08:20:44;102729.09;;;3.17;100.00
35806;BME280;21925;44.608;11.580;2024-01-11T08:23:10;102723.09;;;3.15;100.00
35806;BME280;21925;44.608;11.580;2024-01-11T08:25:35;102767.94;;;3.39;100.00
35806;BME280;21925;44.608;11.580;2024-01-11T08:28:01;102728.03;;;3.18;100.00
35806;BME280;21925;44.608;11.580;2024-01-11T08:30:28;102702.06;;;3.01;100.00
35806;BME280;21925;44.608;11.580;2024-01-11T08:32:54;102725.03;;;3.36;100.00
35806;BME280;21925;44.608;11.580;2024-01-11T08:35:21;102727.44;;;3.54;100.00
35806;BME280;21925;44.608;11.580;2024-01-11T08:37:46;102730.91;;;3.71;100.00
35806;BME280;21925;44.608;11.580;2024-01-11T08:40:12;102673.34;;;3.21;100.00
35806;BME280;21925;44.608;11.580;2024-01-11T08:42:38;102729.88;;;3.77;100.00
35806;BME280;21925;44.608;11.580;2024-01-11T08:45:06;102763.34;;;4.08;100.00
35806;BME280;21925;44.608;11.580;2024-01-11T08:47:33;102743.16;;;3.99;100.00
35806;BME280;21925;44.608;11.580;2024-01-11T08:49:59;102682.53;;;3.63;100.00
35806;BME280;21925;44.608;11.580;2024-01-11T08:52:25;102690.41;;;3.64;100.00
35806;BME280;21925;44.608;11.580;2024-01-11T08:54:50;102726.13;;;3.83;100.00
35806;BME280;21925;44.608;11.580;2024-01-11T08:57:16;102720.34;;;3.95;100.00
35806;BME280;21925;44.608;11.580;2024-01-11T08:59:42;102706.97;;;3.89;100.00
35806;BME280;21925;44.608;11.580;2024-01-11T09:02:08;102676.34;;;3.67;100.00
35806;BME280;21925;44.608;11.580;2024-01-11T09:04:33;102708.13;;;3.98;100.00
35806;BME280;21925;44.608;11.580;2024-01-11T09:06:59;102672.19;;;3.86;100.00
35806;BME280;21925;44.608;11.580;2024-01-11T09:09:25;102699.88;;;4.14;100.00
35806;BME280;21925;44.608;11.580;2024-01-11T09:11:51;102693.00;;;4.33;100.00
35806;BME280;21925;44.608;11.580;2024-01-11T09:14:17;102692.44;;;4.31;100.00
35806;BME280;21925;44.608;11.580;2024-01-11T09:16:42;102666.22;;;4.15;100.00
35806;BME280;21925;44.608;11.580;2024-01-11T09:19:10;102665.78;;;4.28;100.00
35806;BME280;21925;44.608;11.580;2024-01-11T09:21:36;102699.06;;;4.45;100.00
35806;BME280;21925;44.608;11.580;2024-01-11T09:24:02;102674.00;;;4.33;100.00
35806;BME280;21925;44.608;11.580;2024-01-11T09:26:28;102735.16;;;4.77;100.00
35806;BME280;21925;44.608;11.580;2024-01-11T09:28:53;102694.53;;;4.56;100.00
35806;BME280;21925;44.608;11.580;2024-01-11T09:31:19;102666.91;;;4.32;100.00
35806;BME280;21925;44.608;11.580;2024-01-11T09:33:44;102678.28;;;4.61;100.00
35806;BME280;21925;44.608;11.580;2024-01-11T09:36:12;102689.44;;;4.69;100.00
35806;BME280;21925;44.608;11.580;2024-01-11T09:38:38;102668.63;;;4.43;100.00
35806;BME280;21925;44.608;11.580;2024-01-11T09:41:08;102716.63;;;4.69;100.00
35806;BME280;21925;44.608;11.580;2024-01-11T09:43:35;102702.03;;;4.80;100.00
35806;BME280;21925;44.608;11.580;2024-01-11T09:46:05;102720.22;;;5.21;100.00
35806;BME280;21925;44.608;11.580;2024-01-11T09:48:40;102679.03;;;4.97;100.00
35806;BME280;21925;44.608;11.580;2024-01-11T09:51:10;102671.94;;;4.91;100.00
35806;BME280;21925;44.608;11.580;2024-01-11T09:53:39;102703.13;;;5.25;100.00
35806;BME280;21925;44.608;11.580;2024-01-11T09:56:09;102672.00;;;5.01;100.00
35806;BME280;21925;44.608;11.580;2024-01-11T09:58:35;102647.31;;;5.08;100.00
35806;BME280;21925;44.608;11.580;2024-01-11T10:01:08;102706.75;;;5.41;100.00
35806;BME280;21925;44.608;11.580;2024-01-11T10:03:34;102614.91;;;4.96;100.00
35806;BME280;21925;44.608;11.580;2024-01-11T10:06:00;102661.59;;;5.45;100.00
35806;BME280;21925;44.608;11.580;2024-01-11T10:08:27;102674.78;;;5.82;100.00
35806;BME280;21925;44.608;11.580;2024-01-11T10:10:54;102629.34;;;5.98;100.00
35806;BME280;21925;44.608;11.580;2024-01-11T10:13:27;102663.97;;;6.27;100.00
35806;BME280;21925;44.608;11.580;2024-01-11T10:16:04;102651.16;;;6.37;100.00
35806;BME280;21925;44.608;11.580;2024-01-11T10:18:30;102603.47;;;6.40;100.00
35806;BME280;21925;44.608;11.580;2024-01-11T10:20:56;102585.50;;;6.24;100.00
35806;BME280;21925;44.608;11.580;2024-01-11T10:23:23;102638.84;;;6.65;100.00
35806;BME280;21925;44.608;11.580;2024-01-11T10:25:48;102638.28;;;6.83;100.00
35806;BME280;21925;44.608;11.580;2024-01-11T10:28:14;102596.88;;;6.66;100.00
35806;BME280;21925;44.608;11.580;2024-01-11T10:30:41;102532.66;;;6.35;100.00
35806;BME280;21925;44.608;11.580;2024-01-11T10:33:07;102525.53;;;6.49;100.00
35806;BME280;21925;44.608;11.580;2024-01-11T10:35:34;102594.63;;;6.88;100.00
35806;BME280;21925;44.608;11.580;2024-01-11T10:38:03;102587.53;;;6.92;100.00
35806;BME280;21925;44.608;11.580;2024-01-11T10:40:32;102550.53;;;6.71;100.00
35806;BME280;21925;44.608;11.580;2024-01-11T10:42:59;102602.75;;;7.08;100.00
35806;BME280;21925;44.608;11.580;2024-01-11T10:45:25;102553.72;;;6.88;100.00
35806;BME280;21925;44.608;11.580;2024-01-11T10:47:53;102551.63;;;6.70;100.00
35806;BME280;21925;44.608;11.580;2024-01-11T10:50:22;102574.53;;;6.64;100.00
35806;BME280;21925;44.608;11.580;2024-01-11T10:55:59;102572.19;;;7.06;100.00
35806;BME280;21925;44.608;11.580;2024-01-11T10:58:26;102576.53;;;7.11;100.00
35806;BME280;21925;44.608;11.580;2024-01-11T11:00:53;102562.41;;;6.95;100.00
35806;BME280;21925;44.608;11.580;2024-01-11T11:03:20;102556.47;;;6.83;100.00
35806;BME280;21925;44.608;11.580;2024-01-11T11:05:48;102528.84;;;7.04;100.00
35806;BME280;21925;44.608;11.580;2024-01-11T11:08:16;102558.94;;;7.37;100.00
35806;BME280;21925;44.608;11.580;2024-01-11T11:10:45;102528.31;;;7.02;100.00
35806;BME280;21925;44.608;11.580;2024-01-11T11:13:14;102536.69;;;7.15;100.00
35806;BME280;21925;44.608;11.580;2024-01-11T11:15:45;102577.28;;;7.70;100.00
35806;BME280;21925;44.608;11.580;2024-01-11T11:18:13;102559.94;;;7.51;100.00
35806;BME280;21925;44.608;11.580;2024-01-11T11:20:39;102581.00;;;7.84;100.00
35806;BME280;21925;44.608;11.580;2024-01-11T11:23:08;102565.19;;;8.14;100.00
35806;BME280;21925;44.608;11.580;2024-01-11T11:25:40;102515.16;;;7.57;100.00
35806;BME280;21925;44.608;11.580;2024-01-11T11:28:06;102522.13;;;7.68;100.00
35806;BME280;21925;44.608;11.580;2024-01-11T11:30:43;102529.22;;;7.69;100.00
35806;BME280;21925;44.608;11.580;2024-01-11T11:33:18;102559.94;;;7.89;100.00
35806;BME280;21925;44.608;11.580;2024-01-11T11:35:46;102539.41;;;7.92;100.00
35806;BME280;21925;44.608;11.580;2024-01-11T11:38:23;102529.22;;;7.69;100.00
35806;BME280;21925;44.608;11.580;2024-01-11T11:40:51;102496.88;;;7.53;100.00
35806;BME280;21925;44.608;11.580;2024-01-11T11:43:17;102531.84;;;7.84;100.00
35806;BME280;21925;44.608;11.580;2024-01-11T11:45:44;102491.00;;;7.74;100.00
35806;BME280;21925;44.608;11.580;2024-01-11T11:51:18;102514.00;;;7.63;100.00
35806;BME280;21925;44.608;11.580;2024-01-11T11:53:46;102485.38;;;7.89;100.00
35806;BME280;21925;44.608;11.580;2024-01-11T11:56:12;102441.53;;;7.76;100.00
35806;BME280;21925;44.608;11.580;2024-01-11T11:58:43;102493.44;;;8.04;100.00
35806;BME280;21925;44.608;11.580;2024-01-11T12:01:09;102455.38;;;7.84;100.00
35806;BME280;21925;44.608;11.580;2024-01-11T12:03:40;102496.84;;;7.91;100.00
35806;BME280;21925;44.608;11.580;2024-01-11T12:06:07;102453.25;;;7.81;100.00
35806;BME280;21925;44.608;11.580;2024-01-11T12:08:37;102478.78;;;7.95;100.00
35806;BME280;21925;44.608;11.580;2024-01-11T12:11:03;102412.34;;;7.43;100.00
35806;BME280;21925;44.608;11.580;2024-01-11T12:13:29;102437.03;;;7.89;100.00
35806;BME280;21925;44.608;11.580;2024-01-11T12:15:56;102469.66;;;8.33;100.00
35806;BME280;21925;44.608;11.580;2024-01-11T12:18:22;102444.66;;;8.21;100.00
35806;BME280;21925;44.608;11.580;2024-01-11T12:20:48;102434.06;;;7.86;100.00
35806;BME280;21925;44.608;11.580;2024-01-11T12:23:14;102420.75;;;7.80;100.00
35806;BME280;21925;44.608;11.580;2024-01-11T12:25:41;102418.47;;;7.63;100.00
35806;BME280;21925;44.608;11.580;2024-01-11T12:28:07;102453.31;;;7.99;100.00
35806;BME280;21925;44.608;11.580;2024-01-11T12:30:33;102423.22;;;7.76;100.00
35806;BME280;21925;44.608;11.580;2024-01-11T12:32:59;102395.53;;;7.64;100.00
35806;BME280;21925;44.608;11.580;2024-01-11T12:35:27;102442.06;;;8.06;100.00
35806;BME280;21925;44.608;11.580;2024-01-11T12:38:01;102391.00;;;7.78;100.00
35806;BME280;21925;44.608;11.580;2024-01-11T12:40:27;102406.13;;;7.94;100.00
35806;BME280;21925;44.608;11.580;2024-01-11T12:42:53;102376.94;;;7.89;100.00